createdAt,value
2023-04-12T00:02:27.875Z,80.47
2023-04-12T00:05:14.036Z,80.35
2023-04-12T00:08:00.985Z,79.69
2023-04-12T00:10:46.336Z,80.72
2023-04-12T00:13:31.601Z,80.02
2023-04-12T00:16:17.203Z,80.06
2023-04-12T00:19:04.144Z,80.34
2023-04-12T00:21:52.434Z,80.21
2023-04-12T00:24:40.370Z,80.00
2023-04-12T00:27:25.965Z,80.38
2023-04-12T00:30:11.884Z,80.65
2023-04-12T00:32:58.499Z,80.39
2023-04-12T00:35:45.274Z,81.21
2023-04-12T00:38:33.763Z,80.76
2023-04-12T00:41:19.164Z,80.86
2023-04-12T00:44:05.693Z,81.26
2023-04-12T00:46:54.153Z,81.06
2023-04-12T00:49:39.265Z,81.03
2023-04-12T00:52:24.695Z,81.58
2023-04-12T00:55:17.473Z,80.91
2023-04-12T00:58:05.769Z,81.94
2023-04-12T01:00:57.863Z,81.91
2023-04-12T01:03:43.856Z,81.51
2023-04-12T01:07:03.691Z,81.45
2023-04-12T01:10:13.712Z,81.42
2023-04-12T01:13:11.719Z,81.59
2023-04-12T01:16:02.654Z,81.67
2023-04-12T01:18:51.540Z,81.52
2023-04-12T01:22:02.385Z,81.74
2023-04-12T01:24:57.509Z,81.16
2023-04-12T01:27:49.700Z,81.01
2023-04-12T01:30:38.458Z,81.05
2023-04-12T01:33:31.119Z,81.18
2023-04-12T01:36:20.820Z,80.89
2023-04-12T01:39:06.715Z,81.31
2023-04-12T01:41:51.850Z,81.29
2023-04-12T01:44:37.910Z,81.53
2023-04-12T01:47:24.846Z,82.20
2023-04-12T01:50:37.828Z,82.97
2023-04-12T01:53:31.894Z,82.56
2023-04-12T01:56:22.258Z,82.30
2023-04-12T01:59:09.575Z,82.25
2023-04-12T02:01:55.362Z,82.27
2023-04-12T02:04:42.852Z,82.40
2023-04-12T02:07:28.773Z,80.78
2023-04-12T02:10:15.263Z,81.06
2023-04-12T02:13:04.049Z,80.92
2023-04-12T02:15:49.599Z,80.81
2023-04-12T02:18:37.906Z,81.60
2023-04-12T02:21:24.731Z,81.32
2023-04-12T02:24:11.612Z,81.00
2023-04-12T02:26:58.994Z,80.39
2023-04-12T02:29:45.073Z,80.95
2023-04-12T02:32:30.911Z,81.27
2023-04-12T02:35:17.627Z,81.37
2023-04-12T02:38:08.085Z,80.92
2023-04-12T02:41:53.848Z,81.33
2023-04-12T02:44:39.236Z,81.26
2023-04-12T02:47:30.182Z,81.33
2023-04-12T02:50:17.581Z,81.66
2023-04-12T02:53:09.437Z,81.24
2023-04-12T02:55:55.000Z,81.31
2023-04-12T02:58:42.639Z,81.14
2023-04-12T03:01:32.092Z,80.42
2023-04-12T03:04:37.412Z,80.40
2023-04-12T03:07:23.079Z,81.45
2023-04-12T03:10:13.230Z,81.10
2023-04-12T03:13:04.986Z,80.59
2023-04-12T03:16:25.445Z,81.49
2023-04-12T03:19:19.994Z,80.66
2023-04-12T03:22:11.669Z,80.43
2023-04-12T03:25:01.473Z,80.72
2023-04-12T03:27:47.372Z,82.22
2023-04-12T03:30:35.746Z,81.70
2023-04-12T03:33:21.783Z,82.34
2023-04-12T03:36:09.791Z,82.67
2023-04-12T03:38:54.984Z,81.94
2023-04-12T03:41:40.711Z,82.35
2023-04-12T03:44:26.936Z,81.72
2023-04-12T03:47:14.674Z,81.47
2023-04-12T03:52:56.758Z,82.02
2023-04-12T03:55:47.685Z,82.00
2023-04-12T03:58:35.037Z,83.08
2023-04-12T04:01:21.132Z,82.89
2023-04-12T04:04:07.541Z,83.28
2023-04-12T04:06:53.295Z,82.48
2023-04-12T04:09:38.948Z,82.97
2023-04-12T04:12:24.687Z,81.96
2023-04-12T04:15:15.055Z,82.06
2023-04-12T04:18:01.054Z,81.98
2023-04-12T04:20:46.960Z,81.93
2023-04-12T04:23:43.219Z,82.77
2023-04-12T04:26:34.845Z,82.40
2023-04-12T04:29:29.155Z,82.92
2023-04-12T04:32:15.828Z,82.19
2023-04-12T04:35:03.973Z,82.51
2023-04-12T04:38:01.547Z,82.24
2023-04-12T04:40:53.193Z,82.62
2023-04-12T04:43:42.601Z,82.05
2023-04-12T04:46:30.301Z,80.70
2023-04-12T04:49:15.502Z,81.00
2023-04-12T04:52:01.116Z,81.04
2023-04-12T04:54:46.963Z,80.22
2023-04-12T04:57:32.340Z,80.34
2023-04-12T05:00:19.398Z,80.56
2023-04-12T05:03:12.215Z,80.16
2023-04-12T05:05:57.389Z,79.59
2023-04-12T05:08:42.596Z,78.96
2023-04-12T05:11:28.201Z,79.35
2023-04-12T05:14:13.445Z,79.43
2023-04-12T05:16:59.523Z,79.13
2023-04-12T05:19:45.379Z,78.06
2023-04-12T05:22:31.030Z,78.17
2023-04-12T05:25:16.772Z,77.34
2023-04-12T05:28:14.032Z,77.29
2023-04-12T05:31:00.082Z,77.15
2023-04-12T05:33:54.414Z,76.51
2023-04-12T05:36:44.511Z,76.54
2023-04-12T05:39:29.841Z,76.63
2023-04-12T05:42:15.692Z,75.45
2023-04-12T05:45:01.328Z,75.58
2023-04-12T05:47:46.377Z,75.33
2023-04-12T05:50:31.773Z,74.56
2023-04-12T05:53:17.201Z,73.99
2023-04-12T05:56:03.309Z,73.74
2023-04-12T05:58:49.088Z,73.65
2023-04-12T06:01:34.823Z,74.14
2023-04-12T06:04:20.903Z,73.19
2023-04-12T06:07:07.241Z,72.89
2023-04-12T06:09:52.368Z,72.50
2023-04-12T06:12:41.554Z,72.51
2023-04-12T06:15:27.267Z,71.85
2023-04-12T06:18:13.245Z,71.95
2023-04-12T06:20:58.663Z,71.80
2023-04-12T06:23:44.362Z,70.83
2023-04-12T06:26:38.996Z,70.44
2023-04-12T06:29:26.073Z,69.88
2023-04-12T06:32:11.651Z,69.35
2023-04-12T06:34:57.044Z,67.53
2023-04-12T06:37:42.565Z,67.62
2023-04-12T06:40:29.726Z,66.83
2023-04-12T06:43:43.325Z,66.89
2023-04-12T06:46:35.309Z,66.01
2023-04-12T06:49:20.377Z,65.67
2023-04-12T06:52:05.865Z,65.30
2023-04-12T06:54:51.014Z,65.23
2023-04-12T06:57:36.212Z,63.67
2023-04-12T07:00:21.948Z,63.60
2023-04-12T07:03:15.368Z,63.29
2023-04-12T07:06:13.821Z,61.83
2023-04-12T07:09:10.274Z,61.82
2023-04-12T07:11:59.512Z,61.42
2023-04-12T07:14:45.522Z,61.16
2023-04-12T07:17:31.164Z,60.93
2023-04-12T07:20:17.479Z,60.56
2023-04-12T07:23:03.335Z,60.57
2023-04-12T07:25:48.899Z,59.62
2023-04-12T07:28:36.285Z,59.55
2023-04-12T07:31:22.316Z,58.55
2023-04-12T07:34:08.843Z,58.60
2023-04-12T07:36:55.362Z,58.23
2023-04-12T07:39:40.917Z,57.30
2023-04-12T07:42:26.671Z,56.22
2023-04-12T07:45:12.344Z,56.04
2023-04-12T07:47:58.037Z,55.28
2023-04-12T07:50:43.899Z,55.55
2023-04-12T07:53:29.143Z,55.51
2023-04-12T07:56:15.273Z,55.05
2023-04-12T07:59:01.160Z,53.85
2023-04-12T08:01:46.668Z,54.24
2023-04-12T08:04:31.798Z,54.39
2023-04-12T08:07:16.935Z,53.30
2023-04-12T08:10:02.382Z,53.42
2023-04-12T08:12:47.987Z,53.02
2023-04-12T08:15:33.793Z,53.32
2023-04-12T08:18:19.403Z,52.27
2023-04-12T08:21:04.856Z,51.57
2023-04-12T08:23:51.040Z,50.78
2023-04-12T08:26:36.542Z,49.80
2023-04-12T08:29:21.838Z,48.92
2023-04-12T08:32:09.549Z,47.69
2023-04-12T08:34:55.429Z,48.01
2023-04-12T08:37:40.697Z,47.03
2023-04-12T08:40:26.404Z,46.39
2023-04-12T08:43:12.570Z,46.18
2023-04-12T08:45:59.315Z,44.71
2023-04-12T08:48:49.588Z,45.33
2023-04-12T08:51:36.955Z,45.23
2023-04-12T08:54:23.009Z,45.43
2023-04-12T08:57:10.587Z,44.77
2023-04-12T08:59:56.280Z,44.32
2023-04-12T09:02:46.299Z,43.08
2023-04-12T09:05:31.734Z,42.75
2023-04-12T09:08:17.497Z,42.88
2023-04-12T09:11:21.090Z,43.62
2023-04-12T09:14:25.946Z,42.53
2023-04-12T09:17:28.095Z,41.73
2023-04-12T09:20:16.507Z,41.07
2023-04-12T09:23:18.253Z,41.68
2023-04-12T09:26:04.356Z,41.80
2023-04-12T09:28:49.550Z,41.58
2023-04-12T09:31:34.795Z,42.00
2023-04-12T09:34:20.104Z,41.02
2023-04-12T09:37:16.579Z,41.09
2023-04-12T09:40:07.156Z,41.44
2023-04-12T09:42:54.229Z,40.30
2023-04-12T09:45:39.474Z,39.63
2023-04-12T09:48:27.060Z,39.72
2023-04-12T09:51:13.624Z,39.55
2023-04-12T09:54:01.364Z,39.98
2023-04-12T09:56:48.345Z,38.61
2023-04-12T09:59:37.341Z,38.55
2023-04-12T10:02:27.728Z,38.56
2023-04-12T10:05:16.212Z,37.63
2023-04-12T10:08:02.227Z,37.57
2023-04-12T10:10:48.870Z,37.46
2023-04-12T10:13:35.429Z,37.12
2023-04-12T10:16:21.960Z,37.24
2023-04-12T10:19:08.385Z,37.46
2023-04-12T10:21:54.111Z,38.05
2023-04-12T10:24:39.231Z,37.42
2023-04-12T10:27:27.151Z,36.39
2023-04-12T10:30:41.936Z,36.66
2023-04-12T10:33:30.438Z,35.95
2023-04-12T10:36:19.612Z,35.98
2023-04-12T10:39:10.457Z,36.12
2023-04-12T10:42:29.121Z,35.77
2023-04-12T10:45:23.872Z,36.00
2023-04-12T10:48:38.801Z,35.51
2023-04-12T10:51:25.753Z,35.25
2023-04-12T10:54:16.362Z,35.10
2023-04-12T10:57:04.430Z,35.36
2023-04-12T10:59:57.045Z,35.17
2023-04-12T11:03:07.700Z,35.76
2023-04-12T11:06:16.181Z,35.08
2023-04-12T11:09:38.842Z,35.32
2023-04-12T11:12:29.175Z,35.17
2023-04-12T11:15:15.017Z,35.09
2023-04-12T11:18:06.926Z,35.19
2023-04-12T11:20:52.783Z,35.06
2023-04-12T11:23:39.599Z,35.67
2023-04-12T11:26:25.584Z,35.10
2023-04-12T11:29:12.619Z,35.41
2023-04-12T11:31:58.530Z,35.15
2023-04-12T11:34:46.133Z,35.15
2023-04-12T11:37:31.492Z,35.52
2023-04-12T11:40:17.879Z,35.10
2023-04-12T11:43:03.233Z,35.17
2023-04-12T11:45:48.539Z,35.95
2023-04-12T11:48:33.928Z,34.75
2023-04-12T11:51:29.861Z,34.63
2023-04-12T11:54:17.056Z,34.28
2023-04-12T11:57:05.072Z,35.13
2023-04-12T11:59:52.304Z,34.84
2023-04-12T12:02:43.562Z,34.25
2023-04-12T12:05:37.736Z,33.91
2023-04-12T12:08:24.376Z,34.60
2023-04-12T12:11:10.241Z,34.34
2023-04-12T12:13:56.846Z,33.91
2023-04-12T12:16:42.162Z,33.79
2023-04-12T12:19:33.540Z,33.77
2023-04-12T12:22:22.044Z,33.27
2023-04-12T12:25:07.828Z,33.46
2023-04-12T12:27:57.375Z,33.52
2023-04-12T12:30:42.815Z,33.08
2023-04-12T12:33:46.694Z,33.30
2023-04-12T12:36:34.119Z,32.60
2023-04-12T12:39:19.510Z,33.26
2023-04-12T12:42:06.345Z,33.69
2023-04-12T12:44:51.641Z,33.04
2023-04-12T12:47:46.271Z,33.35
2023-04-12T12:50:34.101Z,33.67
2023-04-12T12:53:19.551Z,34.00
2023-04-12T12:56:05.508Z,33.32
2023-04-12T12:58:53.372Z,33.53
2023-04-12T13:01:38.866Z,33.84
2023-04-12T13:04:24.764Z,33.91
2023-04-12T13:07:10.579Z,33.60
2023-04-12T13:09:56.385Z,33.06
2023-04-12T13:12:41.781Z,33.00
2023-04-12T13:15:26.956Z,32.50
2023-04-12T13:18:15.305Z,32.33
2023-04-12T13:21:01.070Z,33.32
2023-04-12T13:23:46.311Z,31.29
2023-04-12T13:26:31.873Z,32.36
2023-04-12T13:29:17.598Z,32.93
2023-04-12T13:32:03.645Z,32.43
2023-04-12T13:34:49.023Z,32.92
2023-04-12T13:37:34.362Z,32.57
2023-04-12T13:40:19.772Z,33.32
2023-04-12T13:43:06.962Z,33.43
2023-04-12T13:45:52.782Z,33.02
2023-04-12T13:48:38.504Z,32.73
2023-04-12T13:51:23.835Z,32.97
2023-04-12T13:54:09.002Z,33.27
2023-04-12T13:56:54.448Z,33.15
2023-04-12T13:59:40.102Z,34.48
2023-04-12T14:02:25.541Z,34.07
2023-04-12T14:05:11.782Z,34.46
2023-04-12T14:07:57.132Z,34.60
2023-04-12T14:10:42.524Z,34.80
2023-04-12T14:13:27.745Z,35.21
2023-04-12T14:16:13.406Z,35.86
2023-04-12T14:18:58.925Z,36.54
2023-04-12T14:21:44.443Z,36.42
2023-04-12T14:24:29.688Z,36.37
2023-04-12T14:27:17.382Z,36.45
2023-04-12T14:30:04.967Z,36.63
2023-04-12T14:32:50.094Z,37.45
2023-04-12T14:35:35.763Z,36.57
2023-04-12T14:38:20.905Z,36.27
2023-04-12T14:41:09.674Z,36.74
2023-04-12T14:43:55.446Z,37.04
2023-04-12T14:46:41.645Z,37.02
2023-04-12T14:49:28.413Z,38.06
2023-04-12T14:52:14.628Z,38.22
2023-04-12T14:55:01.288Z,38.02
2023-04-12T14:57:46.631Z,38.17
2023-04-12T15:00:33.992Z,38.60
2023-04-12T15:03:20.939Z,38.32
2023-04-12T15:06:06.936Z,39.06
2023-04-12T15:08:54.916Z,41.09
2023-04-12T15:11:46.048Z,42.24
2023-04-12T15:14:31.352Z,42.83
2023-04-12T15:17:17.002Z,44.52
2023-04-12T15:20:09.068Z,44.18
2023-04-12T15:22:54.314Z,47.04
2023-04-12T15:25:39.721Z,48.82
2023-04-12T15:28:25.249Z,51.85
2023-04-12T15:31:11.768Z,54.90
2023-04-12T15:33:57.930Z,55.70
2023-04-12T15:36:44.298Z,57.90
2023-04-12T15:39:29.508Z,59.01
2023-04-12T15:42:15.764Z,59.90
2023-04-12T15:45:01.989Z,60.57
2023-04-12T15:47:47.276Z,62.12
2023-04-12T15:50:32.712Z,61.77
2023-04-12T15:53:26.434Z,61.93
2023-04-12T15:56:14.382Z,62.49
2023-04-12T15:59:03.037Z,65.36
2023-04-12T16:01:52.191Z,64.27
2023-04-12T16:04:37.963Z,66.21
2023-04-12T16:07:23.549Z,67.68
2023-04-12T16:10:09.368Z,67.92
2023-04-12T16:12:56.365Z,68.50
2023-04-12T16:15:41.939Z,67.98
2023-04-12T16:18:30.833Z,67.61
2023-04-12T16:21:20.141Z,67.34
2023-04-12T16:24:06.051Z,66.80
2023-04-12T16:26:51.995Z,66.93
2023-04-12T16:29:37.698Z,66.91
2023-04-12T16:32:22.885Z,66.29
2023-04-12T16:35:08.877Z,67.11
2023-04-12T16:37:54.629Z,65.87
2023-04-12T16:40:40.039Z,66.54
2023-04-12T16:43:25.763Z,66.82
2023-04-12T16:46:11.280Z,67.77
2023-04-12T16:48:59.251Z,67.19
2023-04-12T16:51:44.704Z,68.76
2023-04-12T16:54:29.923Z,68.80
2023-04-12T16:57:15.452Z,68.11
2023-04-12T17:00:01.044Z,70.17
2023-04-12T17:02:50.788Z,69.92
2023-04-12T17:05:36.351Z,70.38
2023-04-12T17:08:22.516Z,71.25
2023-04-12T17:11:08.131Z,72.14
2023-04-12T17:13:53.543Z,73.16
2023-04-12T17:16:39.000Z,73.01
2023-04-12T17:19:24.474Z,73.29
2023-04-12T17:22:10.136Z,73.68
2023-04-12T17:24:55.868Z,73.22
2023-04-12T17:27:44.211Z,73.22
2023-04-12T17:30:33.501Z,72.66
2023-04-12T17:33:18.944Z,72.67
2023-04-12T17:36:04.680Z,72.84
2023-04-12T17:38:50.052Z,73.26
2023-04-12T17:41:35.607Z,72.26
2023-04-12T17:44:21.192Z,72.33
2023-04-12T17:47:06.576Z,72.34
2023-04-12T17:49:51.588Z,72.59
2023-04-12T17:52:37.935Z,72.30
2023-04-12T17:55:24.118Z,72.07
2023-04-12T17:58:09.564Z,72.99
2023-04-12T18:00:54.695Z,72.53
2023-04-12T18:03:40.672Z,72.63
2023-04-12T18:06:26.427Z,72.94
2023-04-12T18:09:12.690Z,73.29
2023-04-12T18:12:01.104Z,73.55
2023-04-12T18:14:49.014Z,72.67
2023-04-12T18:17:34.481Z,73.06
2023-04-12T18:20:20.384Z,73.00
2023-04-12T18:23:05.914Z,72.95
2023-04-12T18:25:51.140Z,73.04
2023-04-12T18:28:37.531Z,72.96
2023-04-12T18:31:24.821Z,73.13
2023-04-12T18:34:10.277Z,72.71
2023-04-12T18:36:55.717Z,72.74
2023-04-12T18:39:42.683Z,72.75
2023-04-12T18:42:28.101Z,72.89
2023-04-12T18:45:14.337Z,72.51
2023-04-12T18:48:00.412Z,72.36
2023-04-12T18:50:47.298Z,72.29
2023-04-12T18:53:33.953Z,72.30
2023-04-12T18:56:24.352Z,72.94
2023-04-12T18:59:15.815Z,72.41
2023-04-12T19:02:01.172Z,73.27
2023-04-12T19:04:46.969Z,72.72
2023-04-12T19:07:32.032Z,72.70
2023-04-12T19:10:17.746Z,72.72
2023-04-12T19:13:03.030Z,73.35
2023-04-12T19:15:48.291Z,73.04
2023-04-12T19:18:33.871Z,73.03
2023-04-12T19:21:19.192Z,73.93
2023-04-12T19:24:04.794Z,74.03
2023-04-12T19:26:50.405Z,75.40
2023-04-12T19:29:35.583Z,75.42
2023-04-12T19:32:21.955Z,76.06
2023-04-12T19:35:09.757Z,76.13
2023-04-12T19:37:56.956Z,76.79
2023-04-12T19:40:48.295Z,77.98
2023-04-12T19:43:33.471Z,78.52
2023-04-12T19:46:18.724Z,78.86
2023-04-12T19:49:04.340Z,79.92
2023-04-12T19:51:52.120Z,79.58
2023-04-12T19:54:37.423Z,81.34
2023-04-12T19:57:24.196Z,82.03
2023-04-12T20:00:19.499Z,83.79
2023-04-12T20:03:14.256Z,84.34
2023-04-12T20:06:03.559Z,85.38
2023-04-12T20:08:49.191Z,85.95
2023-04-12T20:11:34.463Z,85.49
2023-04-12T20:14:20.064Z,85.78
2023-04-12T20:17:06.138Z,85.94
2023-04-12T20:19:54.229Z,86.45
2023-04-12T20:22:42.958Z,87.03
2023-04-12T20:25:28.979Z,86.84
2023-04-12T20:28:14.751Z,87.23
2023-04-12T20:31:00.308Z,87.04
2023-04-12T20:33:45.406Z,87.09
2023-04-12T20:36:31.257Z,86.66
2023-04-12T20:39:16.483Z,86.75
2023-04-12T20:42:01.796Z,86.93
2023-04-12T20:44:48.283Z,86.87
2023-04-12T20:47:34.678Z,86.34
2023-04-12T20:50:22.443Z,86.44
2023-04-12T20:53:09.699Z,86.01
2023-04-12T20:55:55.504Z,85.81
2023-04-12T20:58:41.781Z,86.89
2023-04-12T21:01:27.341Z,87.10
2023-04-12T21:04:15.573Z,87.42
2023-04-12T21:07:02.763Z,87.09
2023-04-12T21:09:48.324Z,87.87
2023-04-12T21:12:34.759Z,88.00
2023-04-12T21:15:22.130Z,88.43
2023-04-12T21:18:08.049Z,90.47
2023-04-12T21:20:58.060Z,91.08
2023-04-12T21:23:43.745Z,90.67
2023-04-12T21:26:33.106Z,91.69
2023-04-12T21:29:19.665Z,92.88
2023-04-12T21:32:05.723Z,93.60
2023-04-12T21:34:51.218Z,94.69
2023-04-12T21:37:40.504Z,95.07
2023-04-12T21:40:25.717Z,96.08
2023-04-12T21:43:10.907Z,96.71
2023-04-12T21:45:56.409Z,97.12
2023-04-12T21:48:41.835Z,97.67
2023-04-12T21:51:28.108Z,97.23
2023-04-12T21:54:13.844Z,97.53
2023-04-12T21:56:59.635Z,97.73
2023-04-12T21:59:45.332Z,97.63
2023-04-12T22:02:31.145Z,98.67
2023-04-12T22:05:16.841Z,98.72
2023-04-12T22:08:02.309Z,98.83
2023-04-12T22:10:48.892Z,98.94
2023-04-12T22:13:34.627Z,99.35
2023-04-12T22:16:21.941Z,99.53
2023-04-12T22:19:07.499Z,99.42
2023-04-12T22:21:55.116Z,99.35
2023-04-12T22:24:40.786Z,98.80
2023-04-12T22:27:26.690Z,99.00
2023-04-12T22:30:12.851Z,98.45
2023-04-12T22:32:59.812Z,98.91
2023-04-12T22:35:45.090Z,98.17
2023-04-12T22:38:30.876Z,98.30
2023-04-12T22:41:17.059Z,98.46
2023-04-12T22:44:02.595Z,99.15
2023-04-12T22:46:48.646Z,99.02
2023-04-12T22:49:44.564Z,99.06
2023-04-12T22:52:33.459Z,99.34
2023-04-12T22:55:18.618Z,99.50
2023-04-12T22:58:06.891Z,99.04
2023-04-12T23:00:52.003Z,99.29
2023-04-12T23:03:38.067Z,99.84
2023-04-12T23:06:24.056Z,99.59
2023-04-12T23:09:10.966Z,99.89
2023-04-12T23:11:56.373Z,99.77
2023-04-12T23:14:41.708Z,99.96
2023-04-12T23:17:29.228Z,99.25
2023-04-12T23:20:14.818Z,99.47
2023-04-12T23:23:00.120Z,99.05
2023-04-12T23:25:48.512Z,99.08
2023-04-12T23:28:40.701Z,99.53
2023-04-12T23:31:28.762Z,99.85
2023-04-12T23:34:13.757Z,100.00
2023-04-12T23:36:59.828Z,100.00
2023-04-12T23:39:48.057Z,100.00
2023-04-12T23:42:34.689Z,100.00
2023-04-12T23:45:19.940Z,100.00
2023-04-12T23:48:08.116Z,100.00
2023-04-12T23:50:54.111Z,100.00
2023-04-12T23:53:39.299Z,100.00
2023-04-12T23:56:24.698Z,100.00
2023-04-12T23:59:10.064Z,100.00
